Time;durP1;ratioP1;P1;durP2;ratioP2;P2;SDS_P1;SDS_P2;PMS_P1;PMS_P2;Temp;Humidity;BMP_temperature;BMP_pressure;BME280_temperature;BME280_humidity;BME280_pressure;Samples;Min_cycle;Max_cycle;Signal;HPM_P1;HPM_P2
2023/09/23 00:02:09;;;;;;;1.60;0.52;;;14.80;99.90;;;15.00;100.00;100241.75;5184672;28;20060;-83
2023/09/23 00:04:41;;;;;;;0.70;0.70;;;14.80;99.90;;;14.98;100.00;100244.34;5168627;28;20046;-83
2023/09/23 00:07:14;;;;;;;0.93;0.60;;;14.80;99.90;;;14.95;100.00;100246.97;5169031;28;20057;-82
2023/09/23 00:09:46;;;;;;;0.88;0.45;;;14.80;99.90;;;14.93;100.00;100254.81;5167607;28;20049;-83
2023/09/23 00:12:20;;;;;;;0.77;0.50;;;14.80;99.90;;;14.92;100.00;100254.78;5167748;28;20472;-83
2023/09/23 00:14:54;;;;;;;0.90;0.50;;;14.70;99.90;;;14.89;100.00;100260.91;5171796;28;20050;-83
2023/09/23 00:17:27;;;;;;;0.80;0.55;;;14.70;99.90;;;14.87;100.00;100277.50;5167755;28;20500;-83
2023/09/23 00:20:00;;;;;;;0.65;0.52;;;14.70;99.90;;;14.83;100.00;100273.97;5167666;28;20042;-81
2023/09/23 00:22:34;;;;;;;1.83;0.57;;;14.70;99.90;;;14.82;100.00;100271.34;5168068;28;20065;-82
2023/09/23 00:25:07;;;;;;;0.50;0.50;;;14.60;99.90;;;14.78;100.00;100267.78;5164654;28;20046;-84
2023/09/23 00:27:41;;;;;;;0.52;0.50;;;14.60;99.90;;;14.76;100.00;100274.78;5167724;28;20039;-83
2023/09/23 00:30:14;;;;;;;1.20;0.65;;;14.60;99.90;;;14.75;100.00;100275.66;5166590;28;20057;-84
2023/09/23 00:32:47;;;;;;;0.70;0.60;;;14.60;99.90;;;14.76;100.00;100281.78;5167222;28;20066;-83
2023/09/23 00:35:19;;;;;;;1.48;0.70;;;14.50;99.90;;;14.76;100.00;100285.28;5182995;28;20517;-83
2023/09/23 00:37:52;;;;;;;0.50;0.50;;;14.60;99.90;;;14.75;100.00;100291.38;5167122;28;20050;-82
2023/09/23 00:40:27;;;;;;;0.70;0.70;;;14.60;99.90;;;14.77;100.00;100291.41;5165576;28;20467;-80
2023/09/23 00:43:11;;;;;;;0.55;0.43;;;14.60;99.90;;;14.75;100.00;100293.13;5165826;28;20050;-84
2023/09/23 00:45:48;;;;;;;0.85;0.40;;;14.50;99.90;;;14.72;100.00;100296.59;5164627;28;20472;-82
2023/09/23 00:48:20;;;;;;;0.70;0.52;;;14.60;99.90;;;14.71;100.00;100297.44;5167369;28;20042;-83
2023/09/23 00:50:56;;;;;;;0.50;0.47;;;14.50;99.90;;;14.68;100.00;100297.44;5165757;28;20054;-83
2023/09/23 00:53:34;;;;;;;0.63;0.60;;;14.50;99.90;;;14.66;100.00;100300.03;5165450;28;20069;-83
2023/09/23 00:56:08;;;;;;;0.63;0.60;;;14.50;99.90;;;14.61;100.00;100299.13;5163304;28;20039;-84
2023/09/23 00:58:42;;;;;;;0.63;0.57;;;14.50;99.90;;;14.58;100.00;100300.81;5166710;28;20106;-82
2023/09/23 01:01:16;;;;;;;1.70;0.70;;;14.40;99.90;;;14.57;100.00;100301.69;5164782;28;20042;-83
2023/09/23 01:03:49;;;;;;;0.80;0.50;;;14.40;99.90;;;14.55;100.00;100298.19;5164752;28;20578;-83
2023/09/23 01:06:22;;;;;;;0.75;0.55;;;14.40;99.90;;;14.52;100.00;100300.75;5164815;28;20046;-82
2023/09/23 01:08:54;;;;;;;0.85;0.63;;;14.40;99.90;;;14.51;100.00;100299.00;5166908;28;20058;-83
2023/09/23 01:11:29;;;;;;;0.80;0.70;;;14.40;99.90;;;14.51;100.00;100312.09;5168176;28;20042;-81
2023/09/23 01:14:03;;;;;;;;;;;14.30;99.90;;;14.52;100.00;100313.84;5167108;28;20563;-82
2023/09/23 01:16:35;;;;;;;0.45;0.45;;;14.30;99.90;;;14.50;100.00;100313.84;5180058;28;20052;-82
2023/09/23 01:19:09;;;;;;;0.70;0.63;;;14.30;99.90;;;14.50;100.00;100318.22;5179568;28;20055;-83
2023/09/23 01:21:41;;;;;;;1.25;0.70;;;14.30;99.90;;;14.46;100.00;100316.38;5166254;28;20038;-82
2023/09/23 01:24:14;;;;;;;0.45;0.45;;;14.30;99.90;;;14.44;100.00;100323.34;5166078;28;20046;-83
2023/09/23 01:26:51;;;;;;;1.27;0.63;;;14.30;99.90;;;14.42;100.00;100325.09;5168536;28;20096;-83
2023/09/23 01:29:23;;;;;;;0.52;0.52;;;14.30;99.90;;;14.40;100.00;100333.78;5167403;28;20053;-84
2023/09/23 01:32:12;;;;;;;0.73;0.60;;;14.20;99.90;;;14.37;100.00;100331.16;5165993;28;20046;-83
2023/09/23 01:34:44;;;;;;;1.05;0.63;;;14.20;99.90;;;14.36;100.00;100332.00;5164024;28;20046;-82
2023/09/23 01:37:16;;;;;;;1.38;0.50;;;14.20;99.90;;;14.35;100.00;100338.13;5165838;28;20061;-83
2023/09/23 01:39:52;;;;;;;0.50;0.47;;;14.20;99.90;;;14.31;100.00;100333.69;5165582;28;20043;-83
2023/09/23 01:42:24;;;;;;;0.70;0.57;;;14.20;99.90;;;14.27;100.00;100342.38;5167155;28;20423;-83
2023/09/23 01:44:57;;;;;;;0.73;0.57;;;14.20;99.90;;;14.23;100.00;100335.34;5165672;28;20054;-82
2023/09/23 01:47:29;;;;;;;0.95;0.65;;;14.10;99.90;;;14.20;100.00;100337.91;5165690;28;20046;-82
2023/09/23 01:50:01;;;;;;;1.05;0.60;;;14.10;99.90;;;14.17;100.00;100343.13;5165849;28;20047;-82
2023/09/23 01:52:33;;;;;;;0.88;0.55;;;14.00;99.90;;;14.15;100.00;100343.94;5165589;28;20125;-83
2023/09/23 01:55:11;;;;;;;3.50;0.77;;;14.00;99.90;;;14.13;100.00;100350.06;5165392;28;20122;-82
2023/09/23 01:57:43;;;;;;;1.08;0.70;;;14.00;99.90;;;14.13;100.00;100350.06;5178950;28;20056;-83
2023/09/23 02:00:21;;;;;;;0.52;0.43;;;14.00;99.90;;;14.13;100.00;100355.31;5165674;28;20050;-82
2023/09/23 02:02:54;;;;;;;1.33;0.55;;;14.00;99.90;;;14.15;100.00;100357.97;5165839;28;20073;-82
2023/09/23 02:05:28;;;;;;;0.93;0.47;;;14.00;99.90;;;14.16;100.00;100358.84;5167223;28;20042;-82
2023/09/23 02:08:00;;;;;;;1.00;0.70;;;14.00;99.90;;;14.15;100.00;100373.69;5165902;28;20073;-82
2023/09/23 02:10:33;;;;;;;1.17;0.70;;;14.00;99.90;;;14.12;100.00;100371.00;5165720;28;20046;-83
2023/09/23 02:13:05;;;;;;;0.85;0.70;;;13.90;99.90;;;14.10;100.00;100385.84;5165624;28;20054;-83
2023/09/23 02:15:38;;;;;;;0.60;0.55;;;13.90;99.90;;;14.09;100.00;100382.34;5165190;28;20448;-81
2023/09/23 02:18:10;;;;;;;1.02;0.60;;;13.90;99.90;;;14.09;100.00;100387.59;5166131;28;20069;-82
2023/09/23 02:20:44;;;;;;;0.63;0.50;;;13.90;99.90;;;14.09;100.00;100386.72;5166090;28;20424;-82
2023/09/23 02:23:15;;;;;;;0.70;0.70;;;13.90;99.90;;;14.06;100.00;100384.03;5165659;28;20050;-83
2023/09/23 02:25:50;;;;;;;0.73;0.68;;;13.90;99.90;;;14.02;100.00;100387.50;5165422;28;20058;-83
2023/09/23 02:28:22;;;;;;;0.73;0.70;;;13.90;99.90;;;13.97;100.00;100383.91;5165801;28;20132;-83
2023/09/23 02:30:55;;;;;;;0.55;0.52;;;13.80;99.90;;;13.92;100.00;100386.47;5164851;28;20077;-82
2023/09/23 02:33:27;;;;;;;0.68;0.63;;;13.80;99.90;;;13.87;100.00;100390.75;5164379;28;20046;-83
2023/09/23 02:36:00;;;;;;;0.70;0.63;;;13.70;99.90;;;13.81;100.00;100391.53;5165985;28;20046;-84
2023/09/23 02:38:32;;;;;;;0.75;0.43;;;13.70;99.90;;;13.78;100.00;100394.13;5165440;28;20046;-82
2023/09/23 02:41:06;;;;;;;1.45;0.80;;;13.60;99.90;;;13.73;100.00;100390.53;5165005;28;20054;-83
2023/09/23 02:43:38;;;;;;;1.02;0.60;;;13.60;99.90;;;13.67;100.00;100398.28;5166536;28;20110;-83
2023/09/23 02:46:10;;;;;;;0.93;0.70;;;13.50;99.90;;;13.62;100.00;100389.47;5167924;28;20042;-83
2023/09/23 02:48:43;;;;;;;1.65;0.52;;;13.50;99.90;;;13.59;100.00;100402.53;5195832;28;20114;-82
2023/09/23 02:51:15;;;;;;;1.02;0.90;;;13.50;99.90;;;13.58;100.00;100395.53;5169184;28;20125;-83
2023/09/23 02:53:47;;;;;;;2.10;0.90;;;13.40;99.90;;;13.56;100.00;100410.31;5166286;28;20070;-83
2023/09/23 02:56:20;;;;;;;0.60;0.52;;;13.40;99.90;;;13.54;100.00;100401.56;5165243;28;20046;-83
2023/09/23 02:58:53;;;;;;;1.35;0.70;;;13.40;99.90;;;13.50;100.00;100400.66;5181636;28;20046;-83
2023/09/23 03:01:25;;;;;;;2.67;0.77;;;13.40;99.90;;;13.49;100.00;100405.84;5165177;28;20141;-83
2023/09/23 03:04:06;;;;;;;1.27;0.95;;;13.40;99.90;;;13.51;100.00;100409.38;5167191;28;20050;-84
2023/09/23 03:06:40;;;;;;;0.80;0.70;;;13.40;99.90;;;13.50;100.00;100413.75;5170308;28;20458;-83
2023/09/23 03:09:12;;;;;;;0.90;0.90;;;13.40;99.90;;;13.48;100.00;100409.31;5170981;28;20073;-81
2023/09/23 03:11:49;;;;;;;1.92;0.88;;;13.40;99.90;;;13.47;100.00;100411.06;5167853;28;20129;-83
2023/09/23 03:14:23;;;;;;;1.15;0.82;;;13.40;99.90;;;13.48;100.00;100406.69;5170334;28;20540;-83
2023/09/23 03:16:57;;;;;;;3.17;1.00;;;13.40;99.90;;;13.46;100.00;100408.41;5169940;28;20058;-83
2023/09/23 03:19:31;;;;;;;2.80;0.80;;;13.30;99.90;;;13.44;100.00;100408.41;5169412;28;20057;-82
2023/09/23 03:22:05;;;;;;;1.23;0.80;;;13.30;99.90;;;13.42;100.00;100410.09;5169385;28;20113;-84
2023/09/23 03:24:37;;;;;;;1.15;0.82;;;13.30;99.90;;;13.39;100.00;100412.69;5169385;28;20096;-82
2023/09/23 03:27:11;;;;;;;2.28;0.70;;;13.30;99.90;;;13.40;100.00;100416.16;5169078;28;20122;-83
2023/09/23 03:29:43;;;;;;;2.63;0.90;;;13.30;99.90;;;13.38;100.00;100417.91;5168114;28;20046;-83
2023/09/23 03:32:15;;;;;;;1.85;0.85;;;13.20;99.90;;;13.37;100.00;100416.13;5168776;28;20081;-83
2023/09/23 03:34:50;;;;;;;0.68;0.52;;;13.20;99.90;;;13.33;100.00;100409.06;5168542;28;20050;-84
2023/09/23 03:37:22;;;;;;;0.73;0.60;;;13.20;99.90;;;13.29;100.00;100419.47;5168803;28;20061;-84
2023/09/23 03:39:55;;;;;;;1.30;0.70;;;13.20;99.90;;;13.26;100.00;100419.44;5168860;28;20511;-83
2023/09/23 03:42:30;;;;;;;1.60;0.75;;;13.10;99.90;;;13.22;100.00;100417.59;5168452;28;20050;-83
2023/09/23 03:45:03;;;;;;;;;;;13.10;99.90;;;13.17;100.00;100419.25;5170470;28;20042;-83
2023/09/23 03:47:36;;;;;;;1.45;0.70;;;13.10;99.90;;;13.13;100.00;100417.41;5185091;28;19935;-84
2023/09/23 03:50:09;;;;;;;0.80;0.73;;;13.00;99.90;;;13.08;100.00;100426.91;5165603;28;20042;-83
2023/09/23 03:52:42;;;;;;;0.82;0.82;;;13.00;99.90;;;13.02;100.00;100419.81;5168568;28;20042;-83
2023/09/23 03:55:14;;;;;;;3.78;0.93;;;13.00;99.90;;;12.98;100.00;100428.47;5168417;28;20404;-83
2023/09/23 03:57:48;;;;;;;0.95;0.73;;;12.90;99.90;;;12.96;100.00;100429.28;5168306;28;20122;-82
2023/09/23 04:00:21;;;;;;;1.55;0.75;;;12.90;99.90;;;12.92;100.00;100430.97;5168886;28;20077;-83
2023/09/23 04:02:54;;;;;;;0.68;0.55;;;12.80;99.90;;;12.89;100.00;100438.75;5168872;28;20152;-83
2023/09/23 04:05:28;;;;;;;1.42;0.68;;;12.80;99.90;;;12.84;100.00;100429.03;5168408;28;20455;-81
2023/09/23 04:08:00;;;;;;;0.80;0.70;;;12.70;99.90;;;12.80;100.00;100437.69;5170049;28;20685;-83
2023/09/23 04:10:39;;;;;;;2.35;1.08;;;12.90;99.90;;;12.74;100.00;100439.31;5167733;28;20042;-83
2023/09/23 04:13:14;;;;;;;1.13;0.82;;;12.70;99.90;;;12.73;100.00;100437.56;5164214;28;20057;-83
2023/09/23 04:15:46;;;;;;;0.98;0.75;;;12.70;99.90;;;12.71;100.00;100449.75;5166641;28;20076;-83
2023/09/23 04:18:18;;;;;;;1.15;0.88;;;12.60;99.90;;;12.69;100.00;100450.53;5167928;28;20417;-83
2023/09/23 04:20:53;;;;;;;0.80;0.80;;;12.60;99.90;;;12.67;100.00;100450.53;5167856;28;20093;-84
2023/09/23 04:23:25;;;;;;;1.60;0.80;;;12.60;99.90;;;12.63;100.00;100445.19;5167653;28;20050;-83
2023/09/23 04:25:57;;;;;;;1.77;0.90;;;12.60;99.90;;;12.57;100.00;100448.53;5167211;28;20061;-84
2023/09/23 04:28:31;;;;;;;1.00;0.90;;;12.50;99.90;;;12.52;100.00;100447.59;5167965;28;20049;-83
2023/09/23 04:31:03;;;;;;;0.90;0.65;;;12.50;99.90;;;12.46;100.00;100448.34;5167442;28;20386;-83
2023/09/23 04:33:36;;;;;;;1.83;1.00;;;12.40;99.90;;;12.42;100.00;100459.56;5168882;28;20484;-84
2023/09/23 04:36:10;;;;;;;2.08;0.73;;;12.40;99.90;;;12.41;100.00;100464.75;5169100;28;20042;-84
2023/09/23 04:38:43;;;;;;;1.25;0.77;;;12.30;99.90;;;12.39;100.00;100464.75;5167222;28;20073;-81
2023/09/23 04:41:15;;;;;;;1.35;0.93;;;12.30;99.90;;;12.39;100.00;100466.47;5183502;28;20053;-83
2023/09/23 04:43:49;;;;;;;1.58;0.60;;;12.30;99.90;;;12.36;100.00;100469.00;5168462;28;20049;-84
2023/09/23 04:46:21;;;;;;;1.38;0.93;;;12.30;99.90;;;12.36;100.00;100463.78;5168765;28;20070;-82
2023/09/23 04:48:53;;;;;;;1.20;0.90;;;12.30;99.90;;;12.35;100.00;100472.47;5168572;28;20050;-83
2023/09/23 04:51:25;;;;;;;0.98;0.80;;;12.30;99.90;;;12.34;100.00;100478.56;5167303;28;20602;-83
2023/09/23 04:53:57;;;;;;;2.03;1.00;;;12.30;99.90;;;12.30;100.00;100474.97;5168251;28;20050;-83
2023/09/23 04:56:29;;;;;;;1.02;0.90;;;12.30;99.90;;;12.37;100.00;100486.44;5166938;28;20054;-82
2023/09/23 04:59:03;;;;;;;1.38;0.70;;;12.40;99.90;;;12.41;100.00;100488.28;5168560;28;20053;-83
2023/09/23 05:01:35;;;;;;;2.35;0.80;;;12.30;99.90;;;12.44;100.00;100493.56;5166760;28;20069;-83
2023/09/23 05:04:12;;;;;;;2.17;0.88;;;12.30;99.90;;;12.49;100.00;100497.19;5166803;28;20078;-83
2023/09/23 05:06:44;;;;;;;1.02;0.73;;;12.40;99.90;;;12.54;100.00;100506.00;5168705;28;20053;-83
2023/09/23 05:09:16;;;;;;;1.13;0.70;;;12.40;99.90;;;12.56;100.00;100504.31;5167628;28;20057;-82
2023/09/23 05:11:51;;;;;;;1.45;0.93;;;12.50;99.90;;;12.59;100.00;100512.25;5183421;28;20109;-83
2023/09/23 05:14:25;;;;;;;0.93;0.80;;;12.50;99.90;;;12.59;100.00;100514.84;5166954;28;20129;-82
2023/09/23 05:16:58;;;;;;;0.95;0.82;;;12.50;99.90;;;12.61;100.00;100515.75;5167117;28;20054;-83
2023/09/23 05:19:31;;;;;;;2.08;0.90;;;12.50;99.90;;;12.61;100.00;100525.34;5166974;28;20046;-84
2023/09/23 05:22:03;;;;;;;1.50;0.90;;;12.50;99.90;;;12.63;100.00;100534.97;5167562;28;20042;-85
2023/09/23 05:24:35;;;;;;;0.82;0.77;;;12.50;99.90;;;12.70;100.00;100543.84;5169233;28;20081;-84
2023/09/23 05:27:08;;;;;;;2.17;0.90;;;12.60;99.90;;;12.78;100.00;100539.69;5178372;28;20138;-84
2023/09/23 05:29:42;;;;;;;0.70;0.70;;;12.70;99.90;;;12.84;100.00;100541.50;5168140;28;20046;-84
2023/09/23 05:32:14;;;;;;;0.52;0.52;;;12.70;99.90;;;12.91;100.00;100554.78;5167985;28;20039;-84
2023/09/23 05:34:47;;;;;;;0.95;0.80;;;12.80;99.90;;;12.97;100.00;100549.66;5166746;28;20089;-83
2023/09/23 05:37:19;;;;;;;0.73;0.73;;;12.90;99.90;;;13.02;100.00;100557.59;5168647;28;20050;-84
2023/09/23 05:39:51;;;;;;;0.82;0.80;;;12.90;99.90;;;13.10;100.00;100563.88;5167606;28;20046;-83
2023/09/23 05:42:25;;;;;;;1.38;0.80;;;13.00;99.90;;;13.14;100.00;100570.94;5167419;28;20057;-83
2023/09/23 05:44:59;;;;;;;0.77;0.70;;;13.00;99.90;;;13.18;100.00;100572.78;5166784;28;20058;-83
2023/09/23 05:47:31;;;;;;;0.75;0.75;;;13.00;99.90;;;13.22;100.00;100576.38;5168863;28;20061;-83
2023/09/23 05:50:04;;;;;;;1.23;0.90;;;13.10;99.90;;;13.24;100.00;100585.16;5169743;28;20046;-84
2023/09/23 05:52:37;;;;;;;2.15;1.55;;;13.20;99.90;;;13.26;100.00;100594.81;5170276;28;20053;-83
2023/09/23 05:55:10;;;;;;;1.80;0.75;;;13.30;99.90;;;13.28;100.00;100595.72;5176584;28;20055;-83
2023/09/23 05:57:42;;;;;;;1.77;0.80;;;13.30;99.90;;;13.30;100.00;100601.88;5196202;28;20057;-83
2023/09/23 06:00:17;;;;;;;1.80;0.88;;;13.20;99.90;;;13.32;100.00;100604.53;5181675;28;20054;-83
2023/09/23 06:02:49;;;;;;;;;;;13.20;99.90;;;13.37;100.00;100617.72;5182071;28;20066;-83
2023/09/23 06:05:22;;;;;;;0.80;0.80;;;13.30;99.90;;;13.41;100.00;100617.78;5185838;28;19933;-80
2023/09/23 06:07:54;;;;;;;1.95;0.80;;;13.30;99.90;;;13.45;100.00;100618.75;5165527;28;20660;-81
2023/09/23 06:10:26;;;;;;;1.90;0.98;;;13.30;99.90;;;13.51;100.00;100624.13;5165668;28;20062;-82
2023/09/23 06:12:58;;;;;;;1.95;1.00;;;13.30;99.90;;;13.55;100.00;100631.16;5167734;28;20056;-80
2023/09/23 06:15:32;;;;;;;2.40;0.73;;;13.40;99.90;;;13.58;100.00;100626.88;5165645;28;20061;-80
2023/09/23 06:18:06;;;;;;;0.70;0.70;;;13.50;99.90;;;13.61;100.00;100633.91;5166223;28;20416;-82
2023/09/23 06:20:38;;;;;;;1.77;1.00;;;13.50;99.90;;;13.66;100.00;100634.88;5163633;28;20077;-81
2023/09/23 06:23:10;;;;;;;2.55;0.70;;;13.50;99.90;;;13.70;100.00;100641.97;5165325;28;20042;-80
2023/09/23 06:25:42;;;;;;;1.30;0.80;;;13.60;99.90;;;13.75;100.00;100650.75;5165101;28;20065;-80
2023/09/23 06:28:14;;;;;;;0.93;0.80;;;13.60;99.90;;;14.16;100.00;100653.31;5164306;28;20050;-80
2023/09/23 06:30:47;;;;;;;1.88;1.10;;;13.90;99.90;;;14.58;100.00;100666.28;5163704;28;20424;-82
2023/09/23 06:33:20;;;;;;;1.05;0.95;;;14.20;99.90;;;15.42;100.00;100672.78;5165599;28;20046;-81
2023/09/23 06:35:52;;;;;;;2.08;0.63;;;14.80;99.90;;;16.44;100.00;100675.72;5163919;28;20038;-79
2023/09/23 06:38:24;;;;;;;1.35;0.75;;;15.70;99.90;;;17.39;100.00;100683.44;5167577;28;20050;-83
2023/09/23 06:40:56;;;;;;;3.50;0.88;;;16.50;99.90;;;18.13;100.00;100689.03;5179743;28;20053;-83
2023/09/23 06:43:28;;;;;;;1.73;0.68;;;17.30;99.90;;;18.75;100.00;100689.13;5177669;28;20062;-82
2023/09/23 06:46:02;;;;;;;1.67;0.50;;;18.00;99.90;;;19.17;100.00;100694.38;5191339;28;20448;-81
2023/09/23 06:48:34;;;;;;;2.42;0.90;;;18.50;99.90;;;19.12;98.69;100698.78;5177652;28;20483;-81
2023/09/23 06:51:06;;;;;;;2.38;0.90;;;18.60;99.90;;;18.77;98.08;100700.53;5175400;28;20058;-82
2023/09/23 06:53:39;;;;;;;1.42;0.80;;;18.50;99.90;;;18.55;99.46;100713.72;5174953;28;20047;-81
2023/09/23 06:56:11;;;;;;;0.88;0.52;;;18.30;99.90;;;18.52;99.64;100708.44;5175275;28;20133;-83
2023/09/23 06:58:43;;;;;;;3.50;1.00;;;18.30;99.90;;;18.60;99.11;100714.59;5174591;28;20053;-82
2023/09/23 07:01:18;;;;;;;2.92;1.00;;;18.30;99.90;;;18.75;98.59;100716.41;5174026;28;20049;-83
2023/09/23 07:03:50;;;;;;;3.28;0.90;;;18.40;99.90;;;18.97;97.72;100712.88;5173331;28;20089;-81
2023/09/23 07:06:22;;;;;;;2.03;0.70;;;18.60;99.90;;;19.18;96.30;100719.91;5175278;28;20042;-81
2023/09/23 07:08:54;;;;;;;1.73;0.80;;;18.80;99.90;;;19.50;95.87;100719.84;5190939;28;20054;-82
2023/09/23 07:11:26;;;;;;;2.63;0.70;;;19.00;99.90;;;19.75;93.54;100725.91;5176590;28;20052;-83
2023/09/23 07:14:00;;;;;;;1.40;0.80;;;19.20;99.90;;;19.86;92.14;100732.94;5173054;28;20053;-82
2023/09/23 07:16:34;;;;;;;1.75;0.77;;;19.30;99.90;;;20.03;92.13;100739.06;5175638;28;20042;-82
2023/09/23 07:19:07;;;;;;;3.15;1.05;;;19.50;99.90;;;20.17;91.34;100737.22;5174855;28;20074;-82
2023/09/23 07:21:39;;;;;;;1.58;0.85;;;19.60;99.60;;;20.24;90.15;100746.88;5174839;28;20049;-82
2023/09/23 07:24:11;;;;;;;1.92;0.85;;;19.70;99.10;;;20.25;89.86;100751.28;5175069;28;20038;-82
2023/09/23 07:26:44;;;;;;;4.50;0.88;;;19.70;98.80;;;20.31;88.63;100748.59;5174209;28;20038;-83
2023/09/23 07:29:16;;;;;;;2.00;0.80;;;19.80;98.40;;;20.38;89.96;100746.78;5174864;28;20057;-82
2023/09/23 07:31:49;;;;;;;1.48;0.52;;;19.80;98.90;;;20.58;89.18;100754.63;5175422;28;20043;-82
2023/09/23 07:34:21;;;;;;;3.25;1.02;;;20.00;98.70;;;20.81;89.01;100755.34;5172813;28;20050;-82
2023/09/23 07:36:53;;;;;;;2.90;0.60;;;20.20;98.60;;;21.01;87.92;100759.63;5188813;28;20050;-81
2023/09/23 07:39:25;;;;;;;6.07;1.00;;;20.40;98.20;;;21.14;86.54;100770.09;5186388;28;20098;-83
2023/09/23 07:41:57;;;;;;;1.10;0.60;;;20.50;97.60;;;21.18;86.31;100764.75;5172583;28;20050;-82
2023/09/23 07:44:29;;;;;;;2.88;0.73;;;20.60;97.30;;;21.25;85.44;100777.06;5174635;28;20043;-83
2023/09/23 07:47:03;;;;;;;1.08;0.57;;;20.70;97.00;;;21.30;85.61;100769.97;5174646;28;20050;-83
2023/09/23 07:49:36;;;;;;;1.45;0.40;;;20.70;96.90;;;21.38;84.62;100773.44;5174158;28;20038;-81
2023/09/23 07:52:08;;;;;;;1.85;0.77;;;20.70;96.50;;;21.45;84.53;100784.84;5181795;28;20070;-80
2023/09/23 07:54:40;;;;;;;2.25;0.57;;;20.80;96.50;;;21.57;84.61;100785.59;5173325;28;20043;-83
2023/09/23 07:57:12;;;;;;;1.73;0.65;;;20.80;96.60;;;21.74;83.95;100797.81;5172582;28;20043;-79
2023/09/23 07:59:44;;;;;;;2.55;0.82;;;20.90;96.30;;;21.92;83.20;100793.19;5176123;28;20046;-83
2023/09/23 08:02:17;;;;;;;1.42;0.50;;;21.00;96.10;;;22.20;82.29;100803.50;5176641;28;20042;-83
2023/09/23 08:04:49;;;;;;;2.25;0.50;;;21.10;95.90;;;22.63;80.30;100802.91;5178707;28;20060;-83
2023/09/23 08:07:21;;;;;;;1.35;0.32;;;21.40;95.20;;;22.94;80.50;100806.88;5179129;28;20038;-82
2023/09/23 08:09:53;;;;;;;2.72;0.52;;;21.60;95.50;;;23.16;79.20;100809.22;5179543;28;20066;-82
2023/09/23 08:12:25;;;;;;;1.15;0.55;;;21.70;94.90;;;23.01;78.40;100808.53;5175673;28;20097;-82
2023/09/23 08:14:58;;;;;;;1.42;0.80;;;21.70;94.40;;;22.68;79.16;100819.66;5175608;28;20092;-82
2023/09/23 08:17:31;;;;;;;1.38;0.50;;;21.50;94.50;;;22.34;80.19;100822.78;5171989;28;20052;-84
2023/09/23 08:20:14;;;;;;;1.55;0.63;;;21.40;94.60;;;22.15;80.85;100829.22;5170881;28;20046;-82
2023/09/23 08:22:46;;;;;;;1.67;0.47;;;21.10;94.70;;;22.16;81.06;100828.31;5169263;28;20046;-82
2023/09/23 08:25:18;;;;;;;0.88;0.55;;;21.10;94.90;;;22.09;81.66;100822.19;5170943;28;20065;-82
2023/09/23 08:27:51;;;;;;;1.25;0.47;;;21.00;95.20;;;21.82;83.15;100828.66;5168667;28;20054;-82
2023/09/23 08:30:23;;;;;;;2.42;0.45;;;20.90;95.50;;;21.56;83.80;100833.38;5168446;28;20170;-83
2023/09/23 08:32:56;;;;;;;0.93;0.55;;;20.70;95.70;;;21.92;83.80;100835.66;5174182;28;20046;-83
2023/09/23 08:35:29;;;;;;;2.30;0.60;;;20.80;96.00;;;22.29;81.98;100835.22;5178431;28;20042;-83
2023/09/23 08:38:01;;;;;;;3.00;0.70;;;21.10;95.50;;;22.83;79.90;100838.03;5177053;28;20042;-83
2023/09/23 08:40:36;;;;;;;1.38;0.60;;;21.40;94.80;;;23.14;77.47;100842.91;5176734;28;20046;-83
2023/09/23 08:43:08;;;;;;;2.55;0.70;;;21.80;93.90;;;23.02;77.29;100839.56;5175654;28;20129;-80
2023/09/23 08:45:44;;;;;;;2.40;0.80;;;21.80;93.30;;;23.16;77.94;100843.78;5176102;28;20045;-82
2023/09/23 08:48:19;;;;;;;1.45;0.50;;;21.90;93.50;;;23.68;77.52;100850.91;5174280;28;20050;-81
2023/09/23 08:50:53;;;;;;;1.00;0.40;;;22.30;93.50;;;24.14;76.24;100850.00;5174226;28;20400;-81
2023/09/23 08:53:27;;;;;;;0.93;0.50;;;22.70;93.00;;;24.46;74.85;100855.56;5177416;28;20042;-83
2023/09/23 08:56:00;;;;;;;0.77;0.40;;;23.10;92.30;;;24.60;73.61;100853.47;5180524;28;20042;-82
2023/09/23 08:58:32;;;;;;;1.08;0.68;;;23.40;91.50;;;24.54;73.46;100858.94;5177303;28;20046;-80
2023/09/23 09:01:06;;;;;;;3.08;0.50;;;23.50;91.10;;;24.36;74.02;100862.88;5174757;28;20053;-82
2023/09/23 09:03:40;;;;;;;2.05;0.70;;;23.50;90.90;;;24.20;74.44;100855.22;5175160;28;20038;-81
2023/09/23 09:06:19;;;;;;;1.13;0.40;;;23.40;90.80;;;24.03;74.54;100860.84;5171053;28;20052;-81
2023/09/23 09:08:51;;;;;;;1.10;0.45;;;23.30;90.70;;;23.92;75.25;100858.38;5177025;28;20053;-82
2023/09/23 09:11:24;;;;;;;1.17;0.60;;;23.20;90.80;;;23.81;73.77;100863.06;5176154;28;20031;-82
2023/09/23 09:13:57;;;;;;;1.38;0.40;;;23.10;90.20;;;23.67;74.77;100865.06;5175014;28;20054;-80
2023/09/23 09:16:30;;;;;;;1.55;0.47;;;23.00;90.30;;;23.45;75.29;100873.41;5170251;28;20508;-78
2023/09/23 09:19:03;;;;;;;1.40;0.50;;;22.90;90.50;;;23.20;76.48;100875.59;5165338;28;20046;-77
2023/09/23 09:21:36;;;;;;;1.95;0.73;;;22.60;90.80;;;23.08;76.91;100882.88;5164784;28;20050;-78
2023/09/23 09:24:09;;;;;;;0.45;0.30;;;22.50;91.20;;;23.16;76.70;100878.34;5172191;28;20049;-80
2023/09/23 09:26:41;;;;;;;1.35;0.50;;;22.50;91.20;;;23.15;75.62;100882.78;5173678;28;20101;-81
2023/09/23 09:29:13;;;;;;;1.15;0.60;;;22.50;90.70;;;22.90;75.05;100882.25;5174594;28;20042;-80
2023/09/23 09:31:49;;;;;;;1.20;0.32;;;22.30;90.20;;;22.66;75.91;100882.56;5174211;28;20039;-80
2023/09/23 09:34:28;;;;;;;1.63;0.75;;;22.10;90.40;;;22.73;76.52;100894.88;5174719;28;20095;-80
2023/09/23 09:37:01;;;;;;;1.77;0.50;;;22.00;90.80;;;22.90;75.00;100897.34;5189265;28;20563;-80
2023/09/23 09:39:37;;;;;;;3.47;0.85;;;22.10;90.50;;;22.99;74.95;100887.44;5175979;28;20432;-81
2023/09/23 09:42:13;;;;;;;0.70;0.50;;;22.20;90.40;;;23.07;74.62;100892.63;5189729;28;20097;-81
2023/09/23 09:44:46;;;;;;;1.85;0.60;;;22.30;90.20;;;23.01;73.86;100895.38;5174665;28;20813;-82
2023/09/23 09:47:20;;;;;;;1.33;0.68;;;22.30;89.40;;;22.90;74.48;100900.00;5175369;28;20046;-82
2023/09/23 09:49:54;;;;;;;1.35;0.60;;;22.20;90.00;;;22.81;75.13;100900.94;5175667;28;20074;-80
2023/09/23 09:52:27;;;;;;;1.48;0.75;;;22.10;90.00;;;22.62;75.55;100888.81;5173731;28;20050;-80
2023/09/23 09:55:03;;;;;;;1.02;0.60;;;22.00;90.20;;;22.29;76.07;100893.63;5172334;28;20138;-81
2023/09/23 09:57:35;;;;;;;0.77;0.50;;;21.80;90.20;;;22.02;77.03;100899.22;5174444;28;20066;-81
2023/09/23 10:00:15;;;;;;;0.70;0.43;;;21.50;90.50;;;21.95;78.19;100898.41;5174185;28;20042;-80
2023/09/23 10:02:48;;;;;;;2.88;0.52;;;21.40;91.20;;;22.18;78.42;100900.88;5172264;28;20374;-80
2023/09/23 10:05:22;;;;;;;1.40;0.60;;;21.50;91.40;;;22.19;77.57;100892.00;5173949;28;20412;-81
2023/09/23 10:07:55;;;;;;;0.82;0.57;;;21.60;91.10;;;22.04;78.31;100892.13;5175437;28;20073;-80
2023/09/23 10:10:35;;;;;;;2.70;0.57;;;21.40;91.20;;;22.02;78.43;100894.81;5175220;28;20046;-80
2023/09/23 10:13:09;;;;;;;1.17;0.52;;;21.40;91.20;;;22.00;78.31;100893.94;5172067;28;20046;-80
2023/09/23 10:15:41;;;;;;;0.73;0.60;;;21.40;91.20;;;21.85;79.47;100897.66;5174738;28;20046;-79
2023/09/23 10:18:15;;;;;;;2.22;0.65;;;21.30;91.70;;;21.62;80.73;100902.28;5175087;28;20046;-81
2023/09/23 10:20:51;;;;;;;2.75;0.50;;;21.20;91.90;;;21.33;80.77;100900.75;5176202;28;20058;-80
2023/09/23 10:23:24;;;;;;;0.35;0.32;;;21.00;92.00;;;21.00;81.17;100906.25;5173688;28;20069;-81
2023/09/23 10:25:56;;;;;;;0.88;0.50;;;20.70;92.10;;;20.73;82.56;100908.16;5175443;28;20069;-80
2023/09/23 10:28:30;;;;;;;0.88;0.60;;;20.50;92.50;;;20.51;83.92;100904.72;5174492;28;20042;-80
2023/09/23 10:31:04;;;;;;;0.98;0.55;;;20.20;93.30;;;20.41;85.94;100918.88;5173883;28;20057;-81
2023/09/23 10:33:37;;;;;;;2.22;0.70;;;20.00;94.10;;;20.28;86.56;100923.31;5175273;28;20046;-80
2023/09/23 10:36:20;;;;;;;1.83;0.68;;;20.00;94.30;;;20.11;86.42;100925.13;5173017;28;20062;-81